Terminal Aerodrome Forecast
Issued by NWS Tuscon, AZ

Home | Current Version | Previous Version | Text Only | Print | Product List | Glossary On
Versions: 1 2 3 4 5 6 7 8 9 10 11 12 13 14 15 16 17 18 19 20
123
FTUS45 KTWC 190520
TAFTUS
TAF
KTUS 190520Z 1906/2006 20010KT P6SM SCT040 OVC060
     FM191800 22021G30KT P6SM VCSH SCT040 OVC070
     FM200300 25015G22KT P6SM VCSH SCT040 OVC070=

USA.gov is the U.S. government's official web portal to all federal, state and local government web resources and services.